Time;durP1;ratioP1;P1;durP2;ratioP2;P2;SDS_P1;SDS_P2;PMS_P1;PMS_P2;Temp;Humidity;BMP_temperature;BMP_pressure;BME280_temperature;BME280_humidity;BME280_pressure;Samples;Min_cycle;Max_cycle;Signal;HPM_P1;HPM_P2
2022/06/23 00:01:57;;;;;;;4.00;2.90;;;18.60;79.40;;;;;;6243531;23;20115;-92
2022/06/23 00:04:31;;;;;;;5.47;2.83;;;18.60;79.60;;;;;;6243987;23;20084;-90
2022/06/23 00:07:05;;;;;;;6.97;3.17;;;18.60;79.80;;;;;;6242137;22;20109;-85
2022/06/23 00:09:40;;;;;;;5.47;3.28;;;18.50;79.60;;;;;;6241654;22;20436;-92
2022/06/23 00:12:18;;;;;;;4.30;2.85;;;18.50;79.90;;;;;;6244951;22;20000;-90
2022/06/23 00:14:59;;;;;;;3.67;2.90;;;18.50;80.00;;;;;;6244685;23;20004;-90
2022/06/23 00:17:38;;;;;;;3.72;2.60;;;18.40;80.10;;;;;;6244730;23;20008;-91
2022/06/23 00:20:06;;;;;;;6.20;2.97;;;18.40;80.40;;;;;;6243862;22;20011;-89
2022/06/23 00:22:33;;;;;;;5.18;3.00;;;18.30;80.70;;;;;;6244104;22;20062;-91
2022/06/23 00:25:04;;;;;;;4.13;2.53;;;18.30;81.00;;;;;;6242457;23;20031;-90
2022/06/23 00:27:34;;;;;;;3.53;2.90;;;18.20;81.20;;;;;;6238720;22;20008;-85
2022/06/23 00:30:17;;;;;;;5.45;2.88;;;18.10;81.60;;;;;;6235766;23;20008;-84
2022/06/23 00:32:43;;;;;;;6.25;3.47;;;18.00;81.80;;;;;;6238546;22;20019;-84
2022/06/23 00:35:16;;;;;;;5.57;3.50;;;18.00;82.10;;;;;;6240656;22;20451;-85
2022/06/23 00:37:49;;;;;;;4.15;3.40;;;18.00;82.50;;;;;;6244170;23;20101;-90
2022/06/23 00:40:21;;;;;;;3.55;2.88;;;17.90;82.60;;;;;;6240997;23;20008;-90
2022/06/23 00:43:01;;;;;;;4.03;2.78;;;17.90;82.80;;;;;;6243070;23;20432;-90
2022/06/23 00:46:06;;;;;;;5.75;3.17;;;17.80;83.00;;;;;;6244143;23;20019;-90
2022/06/23 00:48:46;;;;;;;7.57;3.70;;;17.70;83.30;;;;;;6245890;22;20000;-91
2022/06/23 00:51:19;;;;;;;3.67;2.95;;;17.70;83.60;;;;;;6245339;22;20037;-90
2022/06/23 00:54:17;;;;;;;6.03;3.05;;;17.60;83.90;;;;;;6245855;23;20054;-90
2022/06/23 00:57:03;;;;;;;5.07;2.92;;;17.60;84.30;;;;;;6228743;23;20092;-89
2022/06/23 00:59:32;;;;;;;;;;;17.60;84.50;;;;;;6245682;22;20008;-90
2022/06/23 01:02:14;;;;;;;4.43;3.25;;;17.60;84.60;;;;;;6246176;22;19908;-91
2022/06/23 01:04:40;;;;;;;6.00;3.63;;;17.50;85.00;;;;;;6241330;22;20018;-85
2022/06/23 01:07:51;;;;;;;3.95;3.08;;;17.40;85.20;;;;;;6238322;23;20024;-84
2022/06/23 01:10:27;;;;;;;4.47;3.13;;;17.40;85.60;;;;;;6214899;22;20012;-84
2022/06/23 01:13:16;;;;;;;6.22;3.53;;;17.30;85.70;;;;;;6237787;23;20015;-84
2022/06/23 01:15:47;;;;;;;5.18;3.65;;;17.20;85.80;;;;;;6239487;22;20221;-85
2022/06/23 01:18:37;;;;;;;7.35;3.60;;;17.20;85.90;;;;;;6239525;22;20015;-85
2022/06/23 01:21:21;;;;;;;4.03;3.40;;;17.10;86.10;;;;;;6238007;23;20015;-85
2022/06/23 01:24:05;;;;;;;5.45;3.60;;;17.10;86.50;;;;;;6240472;22;20004;-85
2022/06/23 01:27:11;;;;;;;6.22;3.60;;;17.10;86.70;;;;;;6239657;23;20439;-85
2022/06/23 01:29:42;;;;;;;5.90;4.00;;;17.00;87.00;;;;;;6239312;22;20019;-85
2022/06/23 01:32:29;;;;;;;5.53;3.50;;;16.90;87.00;;;;;;6249592;22;20008;-85
2022/06/23 01:35:06;;;;;;;6.00;3.83;;;16.90;87.30;;;;;;6237764;23;20039;-85
2022/06/23 01:37:47;;;;;;;7.18;4.05;;;16.90;87.40;;;;;;6239677;22;20013;-84
2022/06/23 01:40:23;;;;;;;7.13;4.15;;;16.90;87.60;;;;;;6238970;22;20012;-84
2022/06/23 01:42:55;;;;;;;4.72;3.78;;;16.80;87.70;;;;;;6249026;22;20463;-84
2022/06/23 01:45:43;;;;;;;4.88;4.10;;;16.80;87.90;;;;;;6237225;23;20007;-84
2022/06/23 01:48:51;;;;;;;5.32;3.85;;;16.70;88.10;;;;;;6237045;23;20031;-84
2022/06/23 01:51:05;;;;;;;7.57;4.10;;;16.70;88.30;;;;;;6238578;23;20012;-91
2022/06/23 01:53:33;;;;;;;5.78;3.95;;;16.70;88.40;;;;;;6243742;23;20012;-90
2022/06/23 01:56:22;;;;;;;8.30;3.90;;;16.70;88.50;;;;;;6244315;23;20016;-92
2022/06/23 01:59:15;;;;;;;6.35;4.00;;;16.70;88.60;;;;;;6244093;23;20019;-91
2022/06/23 02:02:07;;;;;;;5.75;4.13;;;16.60;88.60;;;;;;6244753;23;20008;-91
2022/06/23 02:04:54;;;;;;;6.35;4.03;;;16.60;88.80;;;;;;6246495;23;20056;-90
2022/06/23 02:07:24;;;;;;;;;;;16.60;89.20;;;;;;6241934;22;20763;-85
2022/06/23 02:10:04;;;;;;;6.75;4.60;;;16.60;89.20;;;;;;6242859;22;20340;-85
2022/06/23 02:12:35;;;;;;;7.28;4.07;;;16.60;89.40;;;;;;6238566;22;20086;-84
2022/06/23 02:15:16;;;;;;;6.35;4.43;;;16.50;89.50;;;;;;6237859;23;20008;-90
2022/06/23 02:17:53;;;;;;;6.40;4.10;;;16.50;89.60;;;;;;6245260;22;20076;-90
2022/06/23 02:20:57;;;;;;;7.22;4.28;;;16.50;89.60;;;;;;6244775;22;20012;-91
2022/06/23 02:23:38;;;;;;;5.85;4.03;;;16.50;89.90;;;;;;6229689;23;20012;-90
2022/06/23 02:26:23;;;;;;;7.15;4.70;;;16.40;90.00;;;;;;6244991;22;20054;-90
2022/06/23 02:29:11;;;;;;;9.13;4.30;;;16.40;90.00;;;;;;6245282;22;20008;-90
2022/06/23 02:32:02;;;;;;;8.00;4.22;;;16.40;90.00;;;;;;6244903;23;20015;-91
2022/06/23 02:34:31;;;;;;;8.73;4.25;;;16.40;90.00;;;;;;6246655;23;20035;-90
2022/06/23 02:37:26;;;;;;;4.38;3.80;;;16.40;90.10;;;;;;6249605;22;20039;-90
2022/06/23 02:39:58;;;;;;;5.30;4.18;;;16.30;90.20;;;;;;6244957;23;20012;-91
2022/06/23 02:42:42;;;;;;;5.82;4.20;;;16.20;90.30;;;;;;6247059;23;20827;-90
2022/06/23 02:45:41;;;;;;;8.80;4.40;;;16.20;90.30;;;;;;6245064;22;20012;-90
2022/06/23 02:48:44;;;;;;;5.95;3.88;;;16.20;90.30;;;;;;6243383;23;20004;-90
2022/06/23 02:51:22;;;;;;;6.43;4.28;;;16.20;90.30;;;;;;6241756;23;20008;-84
2022/06/23 02:54:17;;;;;;;8.85;4.60;;;16.10;90.20;;;;;;6238588;23;20016;-84
2022/06/23 02:57:22;;;;;;;5.22;4.53;;;16.10;90.30;;;;;;6241963;22;20016;-90
2022/06/23 03:00:15;;;;;;;5.70;4.03;;;16.00;90.20;;;;;;6213684;22;20015;-91
2022/06/23 03:03:25;;;;;;;6.10;4.22;;;16.00;90.40;;;;;;6217820;23;20083;-91
2022/06/23 03:05:54;;;;;;;6.10;4.20;;;16.00;90.60;;;;;;6243411;23;20004;-92
2022/06/23 03:08:34;;;;;;;6.75;4.63;;;15.90;90.70;;;;;;6243145;23;20014;-91
2022/06/23 03:14:54;;;;;;;5.05;4.15;;;15.80;90.90;;;;;;6245098;23;20078;-91
2022/06/23 03:17:48;;;;;;;7.72;4.78;;;15.80;91.00;;;;;;6243752;23;20040;-91
2022/06/23 03:20:19;;;;;;;6.95;5.15;;;15.80;91.00;;;;;;6245434;22;20039;-92
2022/06/23 03:22:48;;;;;;;5.93;4.28;;;15.80;91.00;;;;;;6244216;23;20009;-91
2022/06/23 03:25:26;;;;;;;5.85;4.82;;;15.80;91.00;;;;;;6219366;23;20041;-92
2022/06/23 03:28:02;;;;;;;7.88;4.82;;;15.70;91.10;;;;;;6245074;22;20024;-91
2022/06/23 03:30:45;;;;;;;6.47;4.57;;;15.70;91.20;;;;;;6243238;23;20459;-93
2022/06/23 03:33:40;;;;;;;6.68;4.63;;;15.70;91.30;;;;;;6243264;23;20032;-91
2022/06/23 03:36:24;;;;;;;6.32;4.50;;;15.70;91.40;;;;;;6244993;22;20012;-92
2022/06/23 03:42:29;;;;;;;7.03;4.78;;;15.70;91.50;;;;;;6245517;23;20008;-92
2022/06/23 03:45:03;;;;;;;7.65;5.22;;;15.70;91.50;;;;;;6243056;23;20008;-90
2022/06/23 03:47:57;;;;;;;9.35;5.05;;;15.70;91.50;;;;;;6243102;23;20007;-91
2022/06/23 03:50:27;;;;;;;9.63;6.10;;;15.80;92.50;;;;;;6243168;23;20012;-91
2022/06/23 03:53:03;;;;;;;9.43;5.60;;;16.20;91.20;;;;;;6244426;22;20016;-92
2022/06/23 03:55:36;;;;;;;;;;;16.70;90.10;;;;;;6245538;23;20029;-91
2022/06/23 03:58:30;;;;;;;13.23;8.82;;;17.20;87.10;;;;;;6243247;23;19903;-92
2022/06/23 04:01:06;;;;;;;11.05;6.28;;;17.70;85.70;;;;;;6242340;23;20008;-85
2022/06/23 04:03:47;;;;;;;8.40;5.60;;;18.10;83.50;;;;;;6236656;23;20095;-84
2022/06/23 04:06:22;;;;;;;15.32;7.97;;;18.40;82.00;;;;;;6236267;23;20043;-85
2022/06/23 04:08:56;;;;;;;15.85;10.32;;;18.50;80.60;;;;;;6211076;23;20011;-85
2022/06/23 04:11:45;;;;;;;11.07;7.18;;;18.70;80.00;;;;;;6238330;22;20016;-84
2022/06/23 04:14:32;;;;;;;13.15;6.85;;;18.80;79.50;;;;;;6238359;22;20012;-85
2022/06/23 04:17:38;;;;;;;11.27;6.32;;;18.80;79.60;;;;;;6236460;23;20012;-85
2022/06/23 04:20:30;;;;;;;6.40;4.75;;;18.90;79.40;;;;;;6216407;22;20012;-85
2022/06/23 04:23:13;;;;;;;7.57;4.57;;;18.90;79.40;;;;;;6240439;22;20016;-84
2022/06/23 04:25:51;;;;;;;6.13;4.13;;;18.90;78.80;;;;;;6240778;22;20008;-85
2022/06/23 04:28:24;;;;;;;5.63;4.20;;;19.00;78.40;;;;;;6240503;22;20004;-85
2022/06/23 04:30:54;;;;;;;4.95;3.83;;;19.00;78.30;;;;;;6240733;22;20012;-85
2022/06/23 04:33:23;;;;;;;11.73;4.18;;;19.00;79.00;;;;;;6238916;23;20054;-86
2022/06/23 04:35:52;;;;;;;15.93;5.57;;;18.90;78.40;;;;;;6264165;22;20117;-85
2022/06/23 04:38:21;;;;;;;12.57;5.30;;;19.00;78.80;;;;;;6237977;23;20084;-85
2022/06/23 04:41:43;;;;;;;10.70;4.50;;;19.00;79.00;;;;;;6247977;23;20102;-85
2022/06/23 04:44:28;;;;;;;6.32;4.22;;;19.00;78.60;;;;;;6174697;23;20156;-84
2022/06/23 04:47:06;;;;;;;10.55;4.70;;;19.10;78.70;;;;;;6239699;22;20023;-86
2022/06/23 04:50:01;;;;;;;6.97;4.10;;;19.30;78.10;;;;;;6240001;23;20039;-85
2022/06/23 04:52:32;;;;;;;7.82;4.70;;;19.40;77.40;;;;;;6239224;23;20015;-85
2022/06/23 04:55:24;;;;;;;7.43;5.00;;;19.50;77.30;;;;;;6239625;23;20015;-85
2022/06/23 04:57:56;;;;;;;9.85;4.85;;;19.40;77.60;;;;;;6239765;22;20087;-84
2022/06/23 05:00:46;;;;;;;8.13;4.60;;;19.40;77.60;;;;;;6240422;22;20015;-85
2022/06/23 05:03:37;;;;;;;11.57;6.03;;;19.30;77.90;;;;;;6239580;22;20077;-85
2022/06/23 05:06:02;;;;;;;12.68;7.75;;;19.10;79.10;;;;;;6239210;22;20070;-85
2022/06/23 05:08:31;;;;;;;9.43;6.35;;;19.00;80.90;;;;;;6239257;23;20102;-85
2022/06/23 05:11:12;;;;;;;8.00;5.07;;;19.00;80.80;;;;;;6239047;22;20004;-85
2022/06/23 05:13:44;;;;;;;8.60;5.50;;;19.10;80.90;;;;;;6237594;23;20040;-85
2022/06/23 05:16:33;;;;;;;8.80;4.30;;;19.20;81.10;;;;;;6239784;22;20012;-86
2022/06/23 05:19:06;;;;;;;7.25;4.30;;;19.30;80.80;;;;;;6238748;22;20019;-86
2022/06/23 05:21:42;;;;;;;7.40;4.25;;;19.40;80.40;;;;;;6249415;22;20008;-86
2022/06/23 05:24:15;;;;;;;5.88;4.63;;;19.50;79.40;;;;;;6238672;23;20043;-84
2022/06/23 05:27:01;;;;;;;6.43;4.22;;;19.50;79.80;;;;;;6239715;22;20014;-85
2022/06/23 05:29:36;;;;;;;7.75;4.88;;;19.70;79.30;;;;;;6239280;22;20015;-86
2022/06/23 05:32:33;;;;;;;6.53;3.80;;;19.90;78.40;;;;;;6239516;22;20434;-86
2022/06/23 05:35:24;;;;;;;9.27;3.80;;;19.90;78.30;;;;;;6230654;23;20275;-85
2022/06/23 05:38:00;;;;;;;5.93;4.20;;;19.90;78.80;;;;;;6243198;22;20113;-94
2022/06/23 05:40:35;;;;;;;6.47;4.72;;;19.80;79.00;;;;;;6244213;23;20043;-93
2022/06/23 05:43:02;;;;;;;9.77;7.75;;;19.80;78.80;;;;;;6244575;22;20008;-85
2022/06/23 05:45:38;;;;;;;16.48;9.88;;;19.80;78.70;;;;;;6241216;22;20016;-91
2022/06/23 05:48:10;;;;;;;;;;;19.80;79.00;;;;;;6246108;22;20544;-92
2022/06/23 05:50:46;;;;;;;7.03;4.25;;;19.90;78.80;;;;;;6247197;22;19903;-93
2022/06/23 05:53:35;;;;;;;8.30;4.55;;;19.90;79.60;;;;;;6244393;23;20016;-93
2022/06/23 05:56:20;;;;;;;4.95;3.25;;;19.90;80.10;;;;;;6245962;22;20008;-92
2022/06/23 05:59:01;;;;;;;6.53;4.30;;;19.90;80.20;;;;;;6245697;22;20016;-93
2022/06/23 06:01:43;;;;;;;9.48;3.92;;;19.90;79.80;;;;;;6245813;22;20012;-91
2022/06/23 06:04:30;;;;;;;12.45;4.25;;;19.90;76.80;;;;;;6245027;22;20008;-91
2022/06/23 06:06:57;;;;;;;8.25;3.72;;;19.90;77.60;;;;;;6244891;23;20014;-91
2022/06/23 06:09:39;;;;;;;7.40;4.03;;;20.00;78.60;;;;;;6243962;22;20011;-91
2022/06/23 06:12:18;;;;;;;8.25;4.30;;;20.00;76.40;;;;;;6244312;22;20016;-90
2022/06/23 06:14:57;;;;;;;6.38;3.67;;;20.10;76.00;;;;;;6244304;22;20015;-91
2022/06/23 06:17:25;;;;;;;6.68;3.80;;;20.30;75.00;;;;;;6245397;22;20012;-90
2022/06/23 06:19:53;;;;;;;9.73;4.03;;;20.50;74.80;;;;;;6241401;23;20089;-86
2022/06/23 06:22:49;;;;;;;6.97;3.90;;;20.60;73.50;;;;;;6238785;22;20516;-86
2022/06/23 06:25:24;;;;;;;4.40;3.10;;;20.60;74.40;;;;;;6235686;23;20440;-87
2022/06/23 06:27:51;;;;;;;7.72;3.42;;;20.60;75.00;;;;;;6239581;23;20003;-92
2022/06/23 06:30:22;;;;;;;4.07;2.95;;;20.60;73.80;;;;;;6244405;22;20022;-92
2022/06/23 06:32:48;;;;;;;5.63;3.05;;;20.60;72.60;;;;;;6245040;22;20004;-91
2022/06/23 06:35:36;;;;;;;6.25;3.55;;;20.80;72.10;;;;;;6243170;23;20094;-91
2022/06/23 06:38:06;;;;;;;11.98;5.53;;;20.90;71.60;;;;;;6245101;22;20083;-92
2022/06/23 06:40:34;;;;;;;6.72;4.63;;;21.00;71.40;;;;;;6244359;22;20054;-92
2022/06/23 06:43:09;;;;;;;10.02;4.28;;;21.10;70.50;;;;;;6245307;22;20019;-92
2022/06/23 06:45:36;;;;;;;6.40;3.70;;;21.20;69.60;;;;;;6245397;22;20016;-90
2022/06/23 06:48:09;;;;;;;5.90;3.58;;;21.20;69.50;;;;;;6245644;22;20003;-91
2022/06/23 06:50:43;;;;;;;5.75;3.63;;;21.20;69.50;;;;;;6245532;22;20350;-93
2022/06/23 06:53:51;;;;;;;6.20;3.70;;;21.30;70.00;;;;;;6242491;23;20020;-88
2022/06/23 06:56:26;;;;;;;5.65;3.17;;;21.40;69.90;;;;;;6179274;23;20152;-86
2022/06/23 06:59:00;;;;;;;7.77;3.43;;;21.50;69.60;;;;;;6178998;23;20091;-86
2022/06/23 07:01:27;;;;;;;3.38;2.50;;;21.50;69.10;;;;;;6219721;22;20048;-93
2022/06/23 07:03:55;;;;;;;4.82;2.78;;;21.70;69.00;;;;;;6266244;22;20015;-85
2022/06/23 07:06:36;;;;;;;4.80;3.33;;;21.80;67.00;;;;;;6238924;22;20439;-86
2022/06/23 07:09:25;;;;;;;6.00;3.20;;;21.90;67.30;;;;;;6240595;22;20004;-86
2022/06/23 07:11:58;;;;;;;6.07;3.47;;;21.90;67.40;;;;;;6240503;23;20024;-86
2022/06/23 07:14:32;;;;;;;8.10;2.83;;;21.90;67.20;;;;;;6239560;23;20012;-87
2022/06/23 07:17:13;;;;;;;5.97;3.40;;;22.00;67.10;;;;;;6238675;22;20015;-86
2022/06/23 07:19:52;;;;;;;8.98;3.03;;;22.00;66.20;;;;;;6236597;22;20447;-86
2022/06/23 07:22:38;;;;;;;4.78;3.20;;;22.20;65.60;;;;;;6237657;22;20032;-86
2022/06/23 07:25:08;;;;;;;7.33;4.00;;;22.20;65.30;;;;;;6238083;22;20031;-85
2022/06/23 07:27:44;;;;;;;5.30;3.42;;;22.30;66.00;;;;;;6236866;23;20032;-86
2022/06/23 07:30:33;;;;;;;4.05;3.55;;;22.40;66.90;;;;;;6237329;22;20090;-87
2022/06/23 07:33:21;;;;;;;6.68;3.08;;;22.50;66.30;;;;;;6241507;22;20008;-93
2022/06/23 07:36:16;;;;;;;3.95;2.70;;;22.60;65.30;;;;;;6242624;23;20070;-93
2022/06/23 07:38:58;;;;;;;10.15;3.13;;;22.60;65.40;;;;;;6244677;22;20076;-93
2022/06/23 07:41:32;;;;;;;5.32;3.00;;;22.70;65.20;;;;;;6244050;22;20035;-94
2022/06/23 07:44:04;;;;;;;5.13;2.83;;;22.80;65.10;;;;;;6242747;23;20012;-92
2022/06/23 07:46:34;;;;;;;5.95;2.67;;;22.90;62.90;;;;;;6244842;22;20015;-93
2022/06/23 07:49:00;;;;;;;3.83;2.80;;;23.00;63.60;;;;;;6244414;22;20015;-92
2022/06/23 07:51:29;;;;;;;4.55;2.80;;;23.10;63.60;;;;;;6243534;23;20019;-92
2022/06/23 07:53:56;;;;;;;5.18;2.88;;;23.20;62.60;;;;;;6248312;22;20081;-93
2022/06/23 07:56:26;;;;;;;3.10;2.28;;;23.20;63.20;;;;;;6245774;23;20008;-94
2022/06/23 07:59:00;;;;;;;9.77;7.28;;;23.20;64.10;;;;;;6247998;22;20083;-94
2022/06/23 08:01:58;;;;;;;5.47;3.83;;;23.40;62.70;;;;;;6245728;23;20016;-93
2022/06/23 08:04:32;;;;;;;14.23;7.85;;;23.50;61.90;;;;;;6245168;22;20028;-86
2022/06/23 08:07:02;;;;;;;20.08;12.07;;;23.60;62.40;;;;;;6238428;23;20015;-86
2022/06/23 08:09:33;;;;;;;14.63;9.40;;;23.70;62.70;;;;;;6239321;22;20012;-86
2022/06/23 08:18:02;;;;;;;6.38;2.58;;;24.10;60.10;;;;;;6239520;23;20012;-84
2022/06/23 08:20:34;;;;;;;8.73;6.00;;;24.10;58.20;;;;;;6237776;23;20462;-87
2022/06/23 08:23:04;;;;;;;6.72;3.08;;;24.20;58.40;;;;;;6239988;22;20389;-85
2022/06/23 08:25:30;;;;;;;4.07;3.03;;;24.30;59.10;;;;;;6248538;23;20341;-86
2022/06/23 08:27:58;;;;;;;8.43;3.85;;;24.40;58.50;;;;;;6239798;22;20015;-86
2022/06/23 08:30:26;;;;;;;13.82;7.97;;;24.50;58.80;;;;;;6240227;22;20108;-86
2022/06/23 08:32:55;;;;;;;10.02;6.78;;;24.60;58.30;;;;;;6239780;22;20428;-87
2022/06/23 08:35:37;;;;;;;19.55;12.55;;;24.60;59.20;;;;;;6237523;23;20347;-86
2022/06/23 08:38:12;;;;;;;12.30;7.05;;;24.80;56.60;;;;;;6237777;23;20058;-86
2022/06/23 08:40:54;;;;;;;3.35;1.90;;;24.80;55.10;;;;;;6239202;23;20022;-86
2022/06/23 08:43:49;;;;;;;10.10;5.85;;;24.90;53.30;;;;;;6239626;22;20008;-86
2022/06/23 08:46:40;;;;;;;9.35;6.03;;;24.90;54.20;;;;;;6239876;23;20012;-85
2022/06/23 08:49:28;;;;;;;4.00;2.30;;;25.00;54.70;;;;;;6227052;23;20490;-87
2022/06/23 08:52:12;;;;;;;9.40;3.55;;;25.10;55.40;;;;;;6239718;22;20012;-86
2022/06/23 08:55:17;;;;;;;6.63;3.28;;;25.30;55.40;;;;;;6237071;23;20018;-86
2022/06/23 08:58:04;;;;;;;4.78;1.70;;;25.30;56.20;;;;;;6177144;23;20529;-92
2022/06/23 09:00:55;;;;;;;4.53;2.40;;;25.50;52.50;;;;;;6241680;22;20012;-93
2022/06/23 09:03:40;;;;;;;5.50;2.38;;;25.60;53.30;;;;;;6242900;22;20004;-87
2022/06/23 09:06:33;;;;;;;4.80;2.30;;;25.80;52.70;;;;;;6239458;23;20454;-87
2022/06/23 09:09:20;;;;;;;3.65;2.38;;;25.80;52.20;;;;;;6245923;22;20286;-95
2022/06/23 09:12:12;;;;;;;7.57;2.92;;;25.90;52.60;;;;;;6244635;23;20008;-94
2022/06/23 09:15:17;;;;;;;5.10;2.75;;;26.00;51.30;;;;;;6246554;22;20073;-93
2022/06/23 09:17:45;;;;;;;3.97;2.20;;;26.10;51.00;;;;;;6180040;23;20020;-87
2022/06/23 09:24:07;;;;;;;3.00;1.93;;;26.20;50.20;;;;;;6186755;23;20052;-87
2022/06/23 09:26:50;;;;;;;6.32;1.88;;;26.20;49.90;;;;;;6177792;23;20121;-86
2022/06/23 09:29:55;;;;;;;3.40;1.95;;;26.20;48.30;;;;;;6212050;22;20435;-87
2022/06/23 09:32:44;;;;;;;5.78;1.40;;;26.30;46.00;;;;;;6239109;22;20115;-87
2022/06/23 09:35:40;;;;;;;3.35;1.67;;;26.40;46.40;;;;;;6236508;23;20094;-87
2022/06/23 09:38:31;;;;;;;3.13;1.45;;;26.60;47.40;;;;;;6238974;23;20012;-87
2022/06/23 09:41:38;;;;;;;2.03;1.55;;;26.80;47.70;;;;;;6238694;23;20058;-86
2022/06/23 09:44:41;;;;;;;1.90;1.40;;;26.90;45.10;;;;;;6229884;22;20012;-85
2022/06/23 09:47:13;;;;;;;2.97;1.50;;;27.00;44.10;;;;;;6238376;23;20019;-86
2022/06/23 09:50:05;;;;;;;4.93;1.42;;;27.00;45.00;;;;;;6238929;22;20008;-85
2022/06/23 09:53:02;;;;;;;2.20;1.52;;;27.00;45.10;;;;;;6212603;23;20554;-85
2022/06/23 09:56:07;;;;;;;2.25;1.42;;;27.00;43.40;;;;;;6237236;23;20008;-86
2022/06/23 09:58:57;;;;;;;10.65;1.63;;;27.00;44.60;;;;;;6189636;23;20095;-87
2022/06/23 10:01:56;;;;;;;4.28;1.67;;;27.10;44.90;;;;;;6238627;22;20016;-86
2022/06/23 10:04:47;;;;;;;3.13;1.70;;;27.20;44.20;;;;;;6238548;22;20012;-86
2022/06/23 10:07:22;;;;;;;2.65;1.52;;;27.30;44.60;;;;;;6237481;23;20032;-86
2022/06/23 10:10:23;;;;;;;3.65;1.45;;;27.50;43.60;;;;;;6236337;23;20004;-86
2022/06/23 10:13:17;;;;;;;2.03;1.30;;;27.60;42.90;;;;;;6205200;22;20023;-86
2022/06/23 10:16:07;;;;;;;1.27;1.15;;;27.50;42.10;;;;;;6238571;22;20027;-86
2022/06/23 10:18:52;;;;;;;2.67;1.40;;;27.50;41.80;;;;;;6241235;23;20015;-95
2022/06/23 10:21:45;;;;;;;3.00;1.33;;;27.50;40.40;;;;;;6244146;22;20034;-94
2022/06/23 10:24:30;;;;;;;4.05;1.13;;;27.50;40.00;;;;;;6244038;22;20004;-94
2022/06/23 10:27:20;;;;;;;1.30;1.20;;;27.70;40.00;;;;;;6243946;22;20012;-93
2022/06/23 10:30:07;;;;;;;3.00;1.45;;;27.70;40.70;;;;;;6236815;23;20413;-86
2022/06/23 10:32:58;;;;;;;1.60;1.50;;;27.60;40.00;;;;;;6237338;22;20035;-85
2022/06/23 10:35:26;;;;;;;2.42;1.10;;;27.60;39.90;;;;;;6237949;22;20019;-87
2022/06/23 10:38:22;;;;;;;1.63;1.20;;;27.80;39.30;;;;;;6236769;23;20012;-87
2022/06/23 10:41:11;;;;;;;6.53;1.37;;;27.80;39.60;;;;;;6236570;23;20556;-91
2022/06/23 10:43:55;;;;;;;3.47;1.45;;;27.90;39.50;;;;;;6243783;23;20008;-92
2022/06/23 10:46:30;;;;;;;2.25;1.20;;;27.90;40.60;;;;;;6242908;23;20123;-93
2022/06/23 10:49:08;;;;;;;3.15;1.15;;;27.90;38.50;;;;;;6244135;22;20545;-92
2022/06/23 10:51:43;;;;;;;3.35;1.35;;;28.00;38.20;;;;;;6243618;23;20007;-85
2022/06/23 10:54:36;;;;;;;3.47;1.10;;;28.10;39.10;;;;;;6238398;23;20016;-86
2022/06/23 10:57:39;;;;;;;2.40;1.40;;;28.40;37.20;;;;;;6236076;23;20008;-85
2022/06/23 11:00:07;;;;;;;3.15;1.27;;;28.50;35.90;;;;;;6235963;23;20176;-86
2022/06/23 11:02:56;;;;;;;4.35;1.08;;;28.50;36.70;;;;;;6238439;22;20115;-87
2022/06/23 11:05:43;;;;;;;1.45;1.05;;;28.50;35.00;;;;;;6238693;23;20100;-87
2022/06/23 11:08:46;;;;;;;1.33;1.00;;;28.40;36.40;;;;;;6238310;23;20058;-86
2022/06/23 11:11:26;;;;;;;1.35;1.15;;;28.60;36.00;;;;;;6240013;23;20150;-93
2022/06/23 11:14:08;;;;;;;3.45;1.48;;;28.60;35.40;;;;;;6243613;23;20040;-92
2022/06/23 11:16:36;;;;;;;2.05;1.30;;;28.60;35.00;;;;;;6244833;23;20012;-90
2022/06/23 11:19:38;;;;;;;1.55;1.10;;;28.60;35.00;;;;;;6245236;23;20030;-93
2022/06/23 11:22:17;;;;;;;2.78;1.15;;;28.60;36.10;;;;;;6245645;22;20095;-93
2022/06/23 11:25:15;;;;;;;1.70;1.25;;;28.60;38.10;;;;;;6245602;23;20456;-92
2022/06/23 11:28:12;;;;;;;7.40;1.40;;;28.60;37.40;;;;;;6225474;22;20024;-94
2022/06/23 11:30:47;;;;;;;2.45;1.50;;;28.60;37.30;;;;;;6244609;22;20012;-93
2022/06/23 11:33:37;;;;;;;2.20;1.20;;;28.50;37.80;;;;;;6243022;23;20008;-92
2022/06/23 11:36:28;;;;;;;1.92;1.30;;;28.60;38.90;;;;;;6246243;22;20395;-95
2022/06/23 11:39:19;;;;;;;3.53;1.48;;;28.70;36.80;;;;;;6242841;23;20016;-93
2022/06/23 11:42:00;;;;;;;3.90;1.45;;;28.80;38.40;;;;;;6241068;23;20015;-91
2022/06/23 11:44:36;;;;;;;3.83;1.30;;;28.70;37.30;;;;;;6241594;23;20012;-93
2022/06/23 11:47:14;;;;;;;2.78;1.60;;;28.70;38.90;;;;;;6239303;23;20719;-86
2022/06/23 11:50:21;;;;;;;2.30;1.40;;;28.80;37.90;;;;;;6237560;23;20008;-87
2022/06/23 11:57:18;;;;;;;1.98;1.23;;;28.70;38.20;;;;;;6248821;23;20048;-94
2022/06/23 12:00:02;;;;;;;1.92;1.42;;;28.80;36.90;;;;;;6240908;22;20035;-94
2022/06/23 12:03:09;;;;;;;3.45;1.50;;;28.90;38.40;;;;;;6242013;23;20012;-93
2022/06/23 12:05:59;;;;;;;6.97;1.60;;;28.90;37.90;;;;;;6242349;22;20019;-93
2022/06/23 12:08:37;;;;;;;1.73;1.40;;;29.00;37.70;;;;;;6241840;23;20441;-93
2022/06/23 12:11:04;;;;;;;2.30;1.55;;;29.10;36.90;;;;;;6243862;23;20131;-93
2022/06/23 12:13:32;;;;;;;2.65;1.42;;;29.10;36.50;;;;;;6244043;23;20058;-92
2022/06/23 12:16:00;;;;;;;2.50;1.23;;;29.10;35.70;;;;;;6243963;22;20004;-92
2022/06/23 12:18:34;;;;;;;2.15;1.38;;;29.10;37.20;;;;;;6242750;23;20008;-91
2022/06/23 12:21:05;;;;;;;2.03;1.30;;;29.20;36.10;;;;;;6244554;22;20023;-91
2022/06/23 12:24:02;;;;;;;4.15;1.30;;;29.30;37.80;;;;;;6244396;22;20004;-92
2022/06/23 12:26:32;;;;;;;1.98;1.10;;;29.30;35.70;;;;;;6242773;22;20433;-87
2022/06/23 12:29:15;;;;;;;2.42;1.45;;;29.30;37.20;;;;;;6239072;22;20000;-90
2022/06/23 12:31:48;;;;;;;2.95;1.42;;;29.30;37.70;;;;;;6235981;23;20095;-87
2022/06/23 12:34:37;;;;;;;2.25;1.52;;;29.50;36.90;;;;;;6238170;23;20036;-86
2022/06/23 12:37:15;;;;;;;3.35;1.50;;;29.60;36.30;;;;;;6236139;23;20091;-87
2022/06/23 12:40:03;;;;;;;6.00;1.85;;;29.70;36.60;;;;;;6236894;23;20004;-86
2022/06/23 12:42:38;;;;;;;5.60;1.77;;;29.60;36.40;;;;;;6236105;23;20031;-87
2022/06/23 12:45:31;;;;;;;2.05;1.20;;;29.60;37.00;;;;;;6237359;23;20039;-87
2022/06/23 12:48:00;;;;;;;2.25;1.10;;;29.50;36.10;;;;;;6239137;23;20050;-87
2022/06/23 12:50:41;;;;;;;4.10;1.40;;;29.50;35.80;;;;;;6238558;23;20523;-87
2022/06/23 12:53:35;;;;;;;9.35;1.40;;;29.40;36.20;;;;;;6239502;22;20095;-87
2022/06/23 12:56:19;;;;;;;3.88;1.40;;;29.60;36.40;;;;;;6238267;23;20209;-86
2022/06/23 12:59:06;;;;;;;2.15;1.15;;;29.70;36.90;;;;;;6238976;22;20144;-87
2022/06/23 13:01:47;;;;;;;3.40;1.30;;;29.60;36.20;;;;;;6237695;23;20082;-87
2022/06/23 13:04:36;;;;;;;3.45;1.30;;;29.50;36.50;;;;;;6238360;23;20008;-87
2022/06/23 13:07:31;;;;;;;4.55;1.48;;;29.60;36.20;;;;;;6240075;22;20524;-86
2022/06/23 13:10:16;;;;;;;1.90;1.40;;;29.80;36.40;;;;;;6239165;22;20007;-85
2022/06/23 13:12:42;;;;;;;1.77;1.15;;;29.90;35.80;;;;;;6237544;23;20031;-87
2022/06/23 13:15:23;;;;;;;6.15;1.30;;;29.90;36.00;;;;;;6239942;23;20015;-86
2022/06/23 13:18:01;;;;;;;3.72;1.40;;;30.00;35.90;;;;;;6249375;23;20091;-86
2022/06/23 13:20:44;;;;;;;3.13;1.20;;;30.00;35.60;;;;;;6237687;23;20016;-88
2022/06/23 13:23:25;;;;;;;1.83;1.27;;;29.90;34.90;;;;;;6239797;22;20020;-87
2022/06/23 13:25:55;;;;;;;2.63;1.20;;;29.80;35.10;;;;;;6212053;23;20382;-87
2022/06/23 13:29:14;;;;;;;4.35;1.50;;;29.80;36.30;;;;;;6238867;23;20063;-85
2022/06/23 13:31:52;;;;;;;2.15;1.30;;;29.90;36.40;;;;;;6212481;22;20082;-87
2022/06/23 13:34:27;;;;;;;4.03;1.60;;;30.00;36.60;;;;;;6239033;23;20008;-87
2022/06/23 13:36:55;;;;;;;;;;;30.20;36.90;;;;;;6249726;22;20018;-88
2022/06/23 13:39:46;;;;;;;2.88;1.15;;;30.20;36.20;;;;;;6239606;22;19907;-87
2022/06/23 13:42:20;;;;;;;3.13;1.08;;;30.30;35.50;;;;;;6239195;22;20159;-86
2022/06/23 13:45:40;;;;;;;3.10;1.27;;;30.20;34.00;;;;;;6239677;23;20141;-87
2022/06/23 13:48:43;;;;;;;3.20;1.15;;;30.20;33.00;;;;;;6174951;23;20068;-86
2022/06/23 13:51:40;;;;;;;1.00;0.98;;;30.20;34.90;;;;;;6213793;23;20456;-86
2022/06/23 13:54:19;;;;;;;0.88;0.88;;;30.20;33.80;;;;;;6243305;22;20095;-89
2022/06/23 13:57:01;;;;;;;1.38;0.77;;;30.10;34.10;;;;;;6240740;23;20140;-88
2022/06/23 13:59:38;;;;;;;1.38;0.80;;;30.00;32.30;;;;;;6239480;22;20018;-87
2022/06/23 14:02:33;;;;;;;2.72;0.80;;;30.00;33.80;;;;;;6239078;23;20016;-88
2022/06/23 14:05:17;;;;;;;3.47;1.10;;;30.10;34.80;;;;;;6238221;23;20030;-86
2022/06/23 14:08:14;;;;;;;1.13;1.00;;;30.20;33.40;;;;;;6237129;23;20376;-87
2022/06/23 14:11:03;;;;;;;1.65;0.80;;;30.10;34.10;;;;;;6236474;23;20016;-87
2022/06/23 14:13:32;;;;;;;1.50;1.08;;;30.10;33.90;;;;;;6238479;22;20012;-87
2022/06/23 14:16:10;;;;;;;2.33;1.30;;;30.10;34.40;;;;;;6236943;23;20467;-88
2022/06/23 14:18:40;;;;;;;3.78;1.63;;;30.10;34.50;;;;;;6238534;22;20012;-86
2022/06/23 14:21:37;;;;;;;2.67;1.17;;;30.10;34.40;;;;;;6249089;22;20008;-87
2022/06/23 14:24:14;;;;;;;2.42;1.10;;;30.00;34.00;;;;;;6236966;23;20027;-87
2022/06/23 14:26:43;;;;;;;1.45;1.00;;;30.10;35.60;;;;;;6237616;23;20078;-87